Time;durP1;ratioP1;P1;durP2;ratioP2;P2;SDS_P1;SDS_P2;PMS_P1;PMS_P2;Temp;Humidity;BMP_temperature;BMP_pressure;BME280_temperature;BME280_humidity;BME280_pressure;Samples;Min_cycle;Max_cycle;Signal;HPM_P1;HPM_P2
2021/04/27 00:01:57;;;;;;;34.03;15.47;;;;;;;4.57;63.31;100286.70;1777207;78;21846;-80
2021/04/27 00:04:25;;;;;;;35.23;17.15;;;;;;;4.68;62.87;100284.59;1748924;80;22178;-81
2021/04/27 00:06:55;;;;;;;35.40;15.53;;;;;;;4.70;62.89;100277.95;1781857;79;21656;-81
2021/04/27 00:09:20;;;;;;;;;;;;;;;4.72;62.71;100279.96;1784815;80;21358;-85
2021/04/27 00:11:50;;;;;;;36.03;14.20;;;;;;;4.68;63.34;100281.50;1762575;80;22926;-82
2021/04/27 00:14:17;;;;;;;35.05;15.65;;;;;;;4.70;62.95;100276.64;1779021;80;21575;-80
2021/04/27 00:16:43;;;;;;;39.95;14.05;;;;;;;4.67;63.19;100275.90;1782550;79;21307;-80
2021/04/27 00:19:10;;;;;;;30.27;15.07;;;;;;;4.62;63.61;100275.42;1765102;80;20915;-79
2021/04/27 00:21:38;;;;;;;36.28;15.10;;;;;;;4.64;63.56;100276.61;1781389;79;21310;-83
2021/04/27 00:24:09;;;;;;;35.63;15.65;;;;;;;4.65;63.40;100273.88;1780869;80;21668;-76
2021/04/27 00:26:35;;;;;;;30.10;14.87;;;;;;;4.56;63.80;100281.59;1752767;79;22139;-81
2021/04/27 00:29:03;;;;;;;32.00;14.93;;;;;;;4.61;63.75;100281.59;1778471;79;21446;-82
2021/04/27 00:31:29;;;;;;;32.73;13.93;;;;;;;4.59;63.87;100271.72;1749635;80;21759;-78
2021/04/27 00:33:56;;;;;;;33.20;13.77;;;;;;;4.57;63.90;100276.25;1781343;80;21056;-79
2021/04/27 00:36:22;;;;;;;30.37;13.75;;;;;;;4.68;63.28;100275.44;1777996;80;21175;-77
2021/04/27 00:38:48;;;;;;;37.77;13.77;;;;;;;4.73;63.62;100275.10;1779655;80;22362;-81
2021/04/27 00:41:14;;;;;;;30.17;13.87;;;;;;;4.78;63.16;100274.27;1751473;79;21105;-79
2021/04/27 00:43:40;;;;;;;28.63;13.50;;;;;;;4.80;63.42;100277.14;1777515;80;20935;-78
2021/04/27 00:46:06;;;;;;;31.77;13.93;;;;;;;4.88;62.81;100276.56;1783344;80;21173;-81
2021/04/27 00:48:34;;;;;;;34.40;15.40;;;;;;;4.75;63.56;100275.32;1785965;79;21184;-85
2021/04/27 00:51:00;;;;;;;30.57;14.75;;;;;;;4.75;63.92;100273.19;1781168;80;21147;-80
2021/04/27 00:53:29;;;;;;;33.50;15.43;;;;;;;4.75;64.01;100266.65;1783460;80;21185;-84
2021/04/27 00:55:57;;;;;;;37.15;15.65;;;;;;;4.79;63.91;100273.33;1781799;80;21176;-83
2021/04/27 00:58:31;;;;;;;30.10;15.10;;;;;;;4.88;63.65;100268.71;1783291;80;21193;-82
2021/04/27 01:00:57;;;;;;;33.95;16.02;;;;;;;4.94;63.11;100272.17;1780481;80;21711;-81
2021/04/27 01:03:23;;;;;;;34.40;14.68;;;;;;;5.00;62.81;100265.16;1795347;78;21210;-83
2021/04/27 01:05:49;;;;;;;30.20;14.90;;;;;;;5.00;62.74;100263.85;1763049;79;21399;-86
2021/04/27 01:08:46;;;;;;;31.87;15.33;;;;;;;5.00;62.55;100259.92;1791560;79;20956;-83
2021/04/27 01:11:41;;;;;;;;;;;;;;;5.10;62.01;100254.81;1786458;79;21153;-79
2021/04/27 01:14:38;;;;;;;31.93;14.70;;;;;;;5.16;61.86;100260.06;1792496;79;20307;-81
2021/04/27 01:17:11;;;;;;;31.05;13.95;;;;;;;5.18;61.85;100259.45;1788320;78;21439;-86
2021/04/27 01:20:13;;;;;;;30.82;13.93;;;;;;;5.08;61.90;100251.94;1766941;79;21831;-80
2021/04/27 01:23:04;;;;;;;32.60;14.40;;;;;;;5.04;62.00;100260.03;1787978;78;21640;-79
2021/04/27 01:25:43;;;;;;;27.35;13.98;;;;;;;5.08;62.06;100259.80;1782128;78;21545;-83
2021/04/27 01:28:10;;;;;;;29.15;13.45;;;;;;;5.10;61.98;100253.98;1784321;78;21161;-81
2021/04/27 01:30:40;;;;;;;31.00;13.40;;;;;;;5.07;61.95;100256.84;1795800;78;21217;-83
2021/04/27 01:33:13;;;;;;;27.40;12.58;;;;;;;5.10;61.71;100257.91;1787352;78;21267;-82
2021/04/27 01:35:41;;;;;;;27.42;12.35;;;;;;;4.96;62.14;100262.41;1792389;78;21140;-82
2021/04/27 01:38:09;;;;;;;;;;;;;;;4.54;63.82;100264.70;1795873;78;21181;-79
2021/04/27 01:40:36;;;;;;;24.47;10.80;;;;;;;4.36;64.51;100260.35;1754340;79;21090;-81
2021/04/27 01:43:04;;;;;;;28.07;11.78;;;;;;;4.45;63.92;100257.55;1783868;78;21160;-83
2021/04/27 01:45:30;;;;;;;25.68;11.22;;;;;;;4.38;64.42;100268.09;1788857;78;21885;-81
2021/04/27 01:47:58;;;;;;;24.72;11.10;;;;;;;4.29;64.48;100269.12;1782513;79;21207;-81
2021/04/27 01:50:27;;;;;;;28.95;12.68;;;;;;;4.17;65.33;100266.11;1766412;79;21215;-83
2021/04/27 01:52:53;;;;;;;29.70;13.05;;;;;;;3.94;65.99;100264.67;1788193;78;28343;-83
2021/04/27 01:55:21;;;;;;;25.50;12.53;;;;;;;3.62;67.43;100270.06;1782532;78;23287;-85
2021/04/27 01:57:52;;;;;;;28.80;13.40;;;;;;;3.62;67.41;100270.92;1791890;78;21239;-81
2021/04/27 02:00:23;;;;;;;31.37;13.62;;;;;;;3.54;67.62;100277.98;1789874;78;21179;-79
2021/04/27 02:02:54;;;;;;;28.55;14.28;;;;;;;3.49;67.88;100278.76;1791061;78;21189;-82
2021/04/27 02:05:20;;;;;;;35.75;14.20;;;;;;;3.49;67.93;100272.23;1785727;78;21194;-80
2021/04/27 02:07:46;;;;;;;31.37;14.07;;;;;;;3.21;68.45;100255.88;1791711;78;21622;-86
2021/04/27 02:10:13;;;;;;;36.00;15.18;;;;;;;3.21;68.45;100255.88;1790848;78;21944;-79
2021/04/27 02:12:43;;;;;;;33.67;14.78;;;;;;;3.26;68.93;100267.78;1792638;78;21184;-87
2021/04/27 02:15:12;;;;;;;28.73;14.07;;;;;;;3.22;69.33;100264.08;1785046;78;21170;-82
2021/04/27 02:17:56;;;;;;;32.17;14.63;;;;;;;3.23;69.35;100255.32;1762059;79;21140;-81
2021/04/27 02:20:27;;;;;;;35.80;15.85;;;;;;;3.17;69.45;100261.41;1796296;78;21194;-81
2021/04/27 02:22:53;;;;;;;27.98;13.70;;;;;;;3.17;69.45;100271.85;1765573;78;21191;-83
2021/04/27 02:25:21;;;;;;;33.10;13.72;;;;;;;3.00;70.25;100244.34;1791294;78;21063;-81
2021/04/27 02:27:49;;;;;;;34.63;14.18;;;;;;;3.04;70.18;100249.69;1786940;78;21629;-87
2021/04/27 02:30:16;;;;;;;;;;;;;;;3.11;69.89;100255.31;1792643;78;21182;-87
2021/04/27 02:32:45;;;;;;;34.05;13.32;;;;;;;3.15;69.96;100255.48;1789222;78;20307;-80
2021/04/27 02:35:13;;;;;;;32.48;13.70;;;;;;;3.22;69.43;100257.56;1785762;78;21398;-79
2021/04/27 02:37:44;;;;;;;33.78;14.15;;;;;;;3.18;69.65;100259.18;1765741;78;22450;-79
2021/04/27 02:40:12;;;;;;;32.10;14.07;;;;;;;3.15;69.74;100264.13;1790427;78;21177;-80
2021/04/27 02:42:38;;;;;;;34.55;14.28;;;;;;;3.10;70.03;100258.88;1785386;78;21178;-82
2021/04/27 02:45:07;;;;;;;35.60;13.67;;;;;;;3.15;70.08;100262.83;1778820;78;21003;-80
2021/04/27 02:47:37;;;;;;;38.38;14.47;;;;;;;3.11;70.48;100248.79;1786026;78;21221;-80
2021/04/27 02:50:03;;;;;;;31.50;13.48;;;;;;;3.09;70.54;100246.28;1794884;78;21626;-82
2021/04/27 02:52:29;;;;;;;29.37;13.90;;;;;;;3.16;70.03;100240.20;1792303;78;21177;-82
2021/04/27 02:54:58;;;;;;;30.10;13.33;;;;;;;3.16;70.03;100240.20;1787645;78;21147;-82
2021/04/27 02:57:24;;;;;;;26.75;13.35;;;;;;;3.36;69.60;100258.39;1785390;78;21198;-82
2021/04/27 02:59:52;;;;;;;32.50;14.77;;;;;;;3.34;69.91;100253.72;1788692;78;21093;-85
2021/04/27 03:02:18;;;;;;;;;;;;;;;3.24;70.40;100256.97;1793695;78;21532;-84
2021/04/27 03:04:45;;;;;;;30.13;13.83;;;;;;;3.28;70.15;100254.15;1788838;78;20265;-81
2021/04/27 03:07:12;;;;;;;;;;;;;;;3.19;70.03;100258.25;1790979;79;21188;-84
2021/04/27 03:09:41;;;;;;;29.65;13.08;;;;;;;3.28;69.94;100259.37;1787454;79;20288;-82
2021/04/27 03:12:07;;;;;;;30.48;13.35;;;;;;;3.33;69.61;100265.13;1787430;78;21196;-81
2021/04/27 03:14:34;;;;;;;33.28;13.38;;;;;;;3.38;69.43;100265.15;1783978;78;21254;-79
2021/04/27 03:17:00;;;;;;;33.90;14.33;;;;;;;3.44;69.24;100269.12;1789378;79;21235;-79
2021/04/27 03:19:25;;;;;;;31.57;13.83;;;;;;;3.35;69.63;100263.23;1749931;79;21113;-83
2021/04/27 03:21:55;;;;;;;36.17;14.10;;;;;;;3.39;69.17;100269.92;1784544;79;21003;-83
2021/04/27 03:24:20;;;;;;;31.30;13.68;;;;;;;3.44;69.13;100270.42;1786346;79;21153;-85
2021/04/27 03:26:48;;;;;;;35.63;13.80;;;;;;;3.53;68.67;100269.78;1756183;79;21097;-81
2021/04/27 03:29:14;;;;;;;31.57;13.13;;;;;;;3.62;68.31;100270.92;1785263;78;21492;-81
2021/04/27 03:31:43;;;;;;;30.90;14.35;;;;;;;3.62;68.43;100268.31;1786333;78;21187;-86
2021/04/27 03:34:09;;;;;;;35.78;14.60;;;;;;;3.56;68.20;100251.28;1786862;79;21639;-86
2021/04/27 03:36:35;;;;;;;31.90;13.80;;;;;;;3.65;68.61;100265.48;1788320;79;21593;-84
2021/04/27 03:39:03;;;;;;;32.28;14.58;;;;;;;3.63;68.88;100265.22;1784512;79;21189;-85
2021/04/27 03:41:29;;;;;;;29.50;14.20;;;;;;;3.55;69.29;100265.27;1788257;79;21152;-81
2021/04/27 03:43:57;;;;;;;32.47;15.10;;;;;;;3.69;69.05;100262.17;1790976;78;22965;-89
2021/04/27 03:46:30;;;;;;;;;;;;;;;3.66;68.97;100266.30;1787030;79;21152;-80
2021/04/27 03:48:56;;;;;;;30.50;13.32;;;;;;;3.76;68.77;100270.77;1786694;79;21389;-83
2021/04/27 03:51:22;;;;;;;28.77;13.67;;;;;;;3.86;68.10;100265.71;1786592;79;21698;-83
2021/04/27 03:53:51;;;;;;;30.53;14.27;;;;;;;3.95;67.72;100264.22;1787381;79;20931;-79
2021/04/27 03:56:20;;;;;;;34.43;14.13;;;;;;;3.98;67.56;100271.84;1786017;79;21179;-81
2021/04/27 03:58:46;;;;;;;27.82;13.45;;;;;;;3.85;67.96;100274.48;1788707;79;21624;-80
2021/04/27 04:01:13;;;;;;;29.63;15.17;;;;;;;3.85;67.96;100274.48;1782010;79;22095;-85
2021/04/27 04:03:46;;;;;;;30.20;14.90;;;;;;;3.94;67.78;100273.82;1783043;79;21205;-80
2021/04/27 04:06:14;;;;;;;31.30;13.65;;;;;;;4.07;67.37;100272.94;1779083;79;21204;-78
2021/04/27 04:08:40;;;;;;;;;;;;;;;4.12;67.27;100281.30;1785116;79;21656;-79
2021/04/27 04:11:09;;;;;;;27.77;13.13;;;;;;;4.25;67.13;100282.54;1782656;80;20233;-85
2021/04/27 04:13:38;;;;;;;32.03;13.88;;;;;;;4.23;66.90;100282.65;1778121;79;22469;-87
2021/04/27 04:16:05;;;;;;;35.35;14.35;;;;;;;4.13;67.20;100279.03;1779393;79;21822;-81
2021/04/27 04:18:33;;;;;;;28.83;12.43;;;;;;;4.02;67.79;100285.51;1782857;80;21199;-79
2021/04/27 04:20:59;;;;;;;;;;;;;;;3.99;67.95;100285.25;1784597;79;21628;-79
2021/04/27 04:23:28;;;;;;;28.10;13.05;;;;;;;3.97;68.24;100292.86;1780737;79;20290;-85
2021/04/27 04:25:55;;;;;;;31.30;14.55;;;;;;;4.10;67.65;100291.01;1780667;79;21246;-79
2021/04/27 04:28:23;;;;;;;29.55;13.68;;;;;;;4.14;67.64;100294.59;1783439;79;21232;-79
2021/04/27 04:30:50;;;;;;;29.10;15.03;;;;;;;4.19;67.75;100298.19;1778086;79;21686;-80
2021/04/27 04:33:16;;;;;;;34.48;14.68;;;;;;;4.12;67.90;100298.28;1776870;80;21670;-80
2021/04/27 04:35:42;;;;;;;29.50;15.97;;;;;;;4.12;68.11;100300.90;1784017;80;22312;-80
2021/04/27 04:38:08;;;;;;;31.17;15.57;;;;;;;3.87;68.88;100294.81;1780890;80;21176;-83
2021/04/27 04:40:37;;;;;;;32.23;15.10;;;;;;;3.93;68.73;100302.22;1777209;80;21025;-79
2021/04/27 04:43:03;;;;;;;36.17;16.27;;;;;;;4.04;68.50;100301.91;1780490;80;21718;-81
2021/04/27 04:45:31;;;;;;;34.13;17.27;;;;;;;4.09;68.33;100299.81;1782066;79;24406;-82
2021/04/27 04:47:56;;;;;;;;;;;;;;;3.98;68.87;100301.89;1783719;80;21179;-82
2021/04/27 04:50:22;;;;;;;33.63;15.80;;;;;;;3.95;68.89;100308.16;1780721;79;21956;-86
2021/04/27 04:52:48;;;;;;;34.57;16.20;;;;;;;4.14;68.37;100301.13;1781156;80;21113;-80
2021/04/27 04:55:14;;;;;;;40.67;17.80;;;;;;;4.24;68.11;100300.02;1777888;80;20895;-80
2021/04/27 04:57:43;;;;;;;36.38;17.60;;;;;;;4.26;68.39;100299.42;1780955;79;21209;-83
2021/04/27 05:00:15;;;;;;;38.55;17.12;;;;;;;4.43;68.19;100297.36;1780327;80;22325;-81
2021/04/27 05:02:43;;;;;;;33.75;17.25;;;;;;;4.62;67.67;100295.03;1775998;78;22070;-80
2021/04/27 05:05:17;;;;;;;31.37;17.70;;;;;;;4.75;67.31;100296.73;1797005;78;21183;-80
2021/04/27 05:07:56;;;;;;;37.08;17.27;;;;;;;4.79;66.96;100304.23;1792863;78;21189;-81
2021/04/27 05:10:14;;;;;;;;;;;;;;;4.83;66.80;100303.53;1790827;78;21677;-79
2021/04/27 05:12:40;;;;;;;33.65;16.40;;;;;;;4.94;66.66;100294.41;1794606;78;20255;-80
2021/04/27 05:15:06;;;;;;;35.30;17.33;;;;;;;5.08;66.35;100299.05;1799887;78;21175;-80
2021/04/27 05:17:33;;;;;;;37.28;16.95;;;;;;;5.12;66.36;100300.02;1795908;78;21234;-81
2021/04/27 05:20:01;;;;;;;36.40;16.75;;;;;;;5.21;66.08;100303.23;1748290;78;21223;-84
2021/04/27 05:22:29;;;;;;;32.50;16.55;;;;;;;5.30;66.02;100300.85;1794087;78;21785;-80
2021/04/27 05:24:55;;;;;;;40.43;18.10;;;;;;;5.38;65.85;100299.31;1788864;78;21175;-82
2021/04/27 05:27:23;;;;;;;33.53;17.23;;;;;;;5.48;65.64;100300.73;1802066;78;21429;-80
2021/04/27 05:29:52;;;;;;;31.48;17.12;;;;;;;5.61;65.34;100305.88;1804170;78;21595;-87
2021/04/27 05:32:20;;;;;;;37.53;16.42;;;;;;;5.67;64.95;100306.70;1794754;78;21197;-80
2021/04/27 05:34:46;;;;;;;28.87;15.10;;;;;;;5.72;64.94;100308.47;1797260;78;21816;-80
2021/04/27 05:37:12;;;;;;;20.95;11.38;;;;;;;5.91;64.58;100303.09;1795412;78;21188;-80
2021/04/27 05:39:37;;;;;;;19.03;9.23;;;;;;;6.06;63.44;100303.20;1795617;78;22029;-87
2021/04/27 05:42:04;;;;;;;15.87;7.90;;;;;;;6.13;61.60;100308.78;1797073;78;22476;-81
2021/04/27 05:44:32;;;;;;;16.77;7.80;;;;;;;6.10;60.77;100311.16;1798674;78;21121;-81
2021/04/27 05:46:58;;;;;;;;;;;;;;;6.06;60.99;100313.70;1796599;78;21148;-89
2021/04/27 05:49:24;;;;;;;12.65;7.05;;;;;;;6.28;60.89;100313.28;1798052;78;20565;-85
2021/04/27 05:51:53;;;;;;;14.60;7.27;;;;;;;6.24;60.25;100318.41;1798617;78;21780;-83
2021/04/27 05:54:19;;;;;;;15.80;7.75;;;;;;;6.39;59.95;100317.66;1795987;78;21201;-82
2021/04/27 05:56:49;;;;;;;14.10;7.60;;;;;;;6.47;59.58;100319.98;1803390;78;21848;-83
2021/04/27 05:59:15;;;;;;;14.53;6.50;;;;;;;6.56;59.38;100320.20;1797252;78;21227;-84
2021/04/27 06:01:41;;;;;;;11.97;6.40;;;;;;;6.62;57.74;100317.91;1797909;78;25172;-83
2021/04/27 06:04:09;;;;;;;13.67;6.10;;;;;;;6.69;58.05;100320.84;1800465;78;21255;-87
2021/04/27 06:06:35;;;;;;;10.93;5.95;;;;;;;6.76;57.44;100322.02;1796977;78;21065;-82
2021/04/27 06:09:06;;;;;;;11.03;5.37;;;;;;;6.90;56.48;100320.02;1781526;78;21247;-83
2021/04/27 06:11:32;;;;;;;13.15;5.85;;;;;;;6.99;56.51;100318.78;1798265;78;21189;-84
2021/04/27 06:13:57;;;;;;;12.98;5.53;;;;;;;6.98;55.50;100325.48;1797163;78;26782;-88
2021/04/27 06:16:25;;;;;;;7.95;5.33;;;;;;;7.00;55.64;100326.17;1798052;78;21362;-84
2021/04/27 06:18:53;;;;;;;11.80;6.05;;;;;;;7.04;55.73;100329.36;1802675;78;21184;-82
2021/04/27 06:21:24;;;;;;;12.10;6.10;;;;;;;7.23;55.84;100328.67;1798682;78;21225;-82
2021/04/27 06:23:50;;;;;;;11.95;5.70;;;;;;;7.32;55.62;100325.27;1798700;78;21146;-83
2021/04/27 06:26:17;;;;;;;10.80;5.85;;;;;;;7.33;54.93;100324.28;1783028;78;21200;-83
2021/04/27 06:28:42;;;;;;;9.33;5.30;;;;;;;7.48;54.72;100325.59;1803496;78;21839;-85
2021/04/27 06:31:08;;;;;;;9.35;4.60;;;;;;;7.63;54.37;100325.23;1801772;78;25481;-84
2021/04/27 06:33:36;;;;;;;10.00;4.37;;;;;;;7.65;52.87;100320.69;1794102;78;23845;-84
2021/04/27 06:36:04;;;;;;;;;;;;;;;7.66;52.83;100322.33;1804368;78;21184;-84
2021/04/27 06:38:30;;;;;;;6.17;3.77;;;;;;;7.76;52.28;100324.52;1797568;78;20268;-84
2021/04/27 06:40:57;;;;;;;8.50;4.15;;;;;;;7.81;51.23;100327.58;1801624;78;22009;-85
2021/04/27 06:43:26;;;;;;;8.03;4.40;;;;;;;7.89;50.66;100326.44;1804133;78;21391;-84
2021/04/27 06:45:53;;;;;;;7.80;4.30;;;;;;;7.76;50.07;100328.47;1805055;78;21208;-83
2021/04/27 06:48:22;;;;;;;6.95;3.83;;;;;;;7.93;49.59;100324.86;1799372;78;28398;-86
2021/04/27 06:50:48;;;;;;;7.75;3.75;;;;;;;8.01;49.10;100313.17;1781830;78;21225;-82
2021/04/27 06:53:14;;;;;;;6.08;3.80;;;;;;;7.98;48.57;100317.39;1801471;78;21877;-83
2021/04/27 06:55:39;;;;;;;10.75;3.60;;;;;;;8.03;48.27;100314.71;1805502;78;21205;-88
2021/04/27 06:58:11;;;;;;;7.70;3.60;;;;;;;8.15;47.89;100322.47;1797704;78;23867;-88
2021/04/27 07:00:38;;;;;;;6.45;2.98;;;;;;;8.25;47.83;100316.26;1806510;78;21173;-85
2021/04/27 07:03:04;;;;;;;7.70;2.90;;;;;;;8.35;46.25;100319.38;1805175;78;21636;-83
2021/04/27 07:05:30;;;;;;;6.75;3.00;;;;;;;8.35;45.47;100325.96;1770598;80;21207;-80
2021/04/27 07:07:57;;;;;;;6.30;3.00;;;;;;;8.29;44.48;100323.88;1789687;78;26811;-85
2021/04/27 07:10:23;;;;;;;6.95;3.00;;;;;;;8.40;44.54;100327.69;1793887;78;21200;-86
2021/04/27 07:12:48;;;;;;;5.08;2.60;;;;;;;8.46;44.34;100325.03;1788132;78;28396;-86
2021/04/27 07:15:14;;;;;;;6.92;3.05;;;;;;;8.69;45.33;100326.41;1793425;78;26747;-83
2021/04/27 07:17:42;;;;;;;6.80;2.92;;;;;;;8.72;43.96;100335.84;1788869;78;21805;-83
2021/04/27 07:20:12;;;;;;;5.22;2.70;;;;;;;8.49;43.24;100330.84;1789162;78;21958;-85
2021/04/27 07:22:37;;;;;;;4.10;2.15;;;;;;;8.57;43.34;100328.34;1789485;78;21053;-78
2021/04/27 07:25:05;;;;;;;3.77;1.92;;;;;;;8.47;40.56;100334.57;1788150;78;28474;-78
2021/04/27 07:27:30;;;;;;;5.42;2.30;;;;;;;8.57;40.37;100333.60;1790732;78;21239;-74
2021/04/27 07:29:56;;;;;;;3.62;1.98;;;;;;;8.56;40.03;100331.96;1788595;78;22125;-76
2021/04/27 07:32:26;;;;;;;4.62;2.20;;;;;;;8.42;40.09;100332.31;1789183;78;21175;-76
2021/04/27 07:34:56;;;;;;;3.45;2.10;;;;;;;8.49;40.51;100323.44;1791948;78;21177;-75
2021/04/27 07:37:22;;;;;;;4.92;2.22;;;;;;;8.66;40.95;100331.95;1790060;78;21226;-76
2021/04/27 07:39:48;;;;;;;6.85;2.40;;;;;;;8.79;39.94;100330.34;1792345;78;27068;-73
2021/04/27 07:42:14;;;;;;;5.62;2.40;;;;;;;8.95;39.75;100331.92;1789068;78;22048;-74
2021/04/27 07:44:40;;;;;;;4.57;2.23;;;;;;;9.15;39.73;100331.87;1769349;78;25509;-76
2021/04/27 07:47:08;;;;;;;5.08;2.17;;;;;;;9.29;38.64;100328.80;1791700;78;21152;-74
2021/04/27 07:49:33;;;;;;;;;;;;;;;9.04;37.83;100339.45;1794478;78;21618;-74
2021/04/27 07:52:01;;;;;;;4.37;1.90;;;;;;;8.88;36.65;100329.99;1789113;78;21112;-74
2021/04/27 07:54:27;;;;;;;3.00;1.67;;;;;;;8.88;36.42;100331.31;1789676;78;21890;-75
2021/04/27 07:56:52;;;;;;;4.83;1.80;;;;;;;8.89;36.91;100332.98;1788165;78;26886;-74
2021/04/27 07:59:18;;;;;;;4.72;1.85;;;;;;;9.04;37.02;100328.91;1783258;78;25293;-75
2021/04/27 08:01:44;;;;;;;2.95;1.47;;;;;;;9.19;36.58;100325.35;1788630;78;21209;-81
2021/04/27 08:04:11;;;;;;;2.58;1.70;;;;;;;9.32;36.50;100325.88;1789206;78;21176;-73
2021/04/27 08:06:36;;;;;;;3.33;1.62;;;;;;;8.74;35.30;100333.89;1787289;78;21895;-81
2021/04/27 08:09:03;;;;;;;2.10;1.52;;;;;;;9.07;36.42;100330.44;1788408;78;26882;-75
2021/04/27 08:11:30;;;;;;;3.20;1.23;;;;;;;9.18;35.70;100332.08;1765355;78;21579;-74
2021/04/27 08:13:56;;;;;;;3.10;1.52;;;;;;;9.15;35.72;100330.55;1790731;78;21175;-76
2021/04/27 08:16:22;;;;;;;4.05;2.08;;;;;;;9.25;35.85;100330.55;1789005;78;26838;-78
2021/04/27 08:18:47;;;;;;;5.08;2.85;;;;;;;9.24;36.41;100332.83;1784738;78;22739;-74
2021/04/27 08:21:21;;;;;;;4.70;3.22;;;;;;;9.13;39.00;100332.51;1788039;78;27390;-75
2021/04/27 08:23:46;;;;;;;8.85;3.35;;;;;;;9.23;39.42;100329.38;1785795;78;21627;-75
2021/04/27 08:26:13;;;;;;;6.78;2.83;;;;;;;9.06;39.95;100335.36;1787549;78;28957;-77
2021/04/27 08:28:39;;;;;;;6.03;3.00;;;;;;;9.36;39.65;100325.59;1785653;79;21166;-77
2021/04/27 08:31:05;;;;;;;6.65;3.10;;;;;;;9.39;39.13;100323.49;1788490;78;21212;-77
2021/04/27 08:33:32;;;;;;;6.87;3.00;;;;;;;9.51;39.10;100325.47;1787513;78;28326;-75
2021/04/27 08:35:58;;;;;;;7.90;3.02;;;;;;;9.19;38.63;100335.89;1786581;78;21199;-76
2021/04/27 08:38:25;;;;;;;7.17;3.05;;;;;;;9.32;38.62;100325.88;1760442;78;28305;-80
2021/04/27 08:40:57;;;;;;;4.33;2.80;;;;;;;9.37;38.57;100324.59;1787296;78;21161;-78
2021/04/27 08:43:24;;;;;;;5.70;2.80;;;;;;;9.36;38.19;100317.69;1794288;78;21149;-81
2021/04/27 08:45:52;;;;;;;;;;;;;;;9.37;37.94;100323.28;1792757;78;21216;-78
2021/04/27 08:48:18;;;;;;;;;;;;;;;9.47;37.66;100322.77;1795363;78;20290;-75
2021/04/27 08:50:47;;;;;;;2.85;1.82;;;;;;;9.12;37.59;100317.66;1787393;78;20281;-77
2021/04/27 08:53:12;;;;;;;6.15;2.77;;;;;;;9.05;37.80;100329.77;1788361;78;21186;-83
2021/04/27 08:55:40;;;;;;;7.50;3.10;;;;;;;9.10;37.35;100325.70;1796749;78;22472;-78
2021/04/27 08:58:12;;;;;;;7.17;2.70;;;;;;;9.26;36.55;100325.60;1787499;78;21176;-78
2021/04/27 09:00:38;;;;;;;4.28;2.60;;;;;;;9.30;36.38;100323.03;1786824;78;21205;-80
2021/04/27 09:03:08;;;;;;;8.18;2.95;;;;;;;9.47;36.44;100322.27;1786547;78;21182;-77
2021/04/27 09:05:36;;;;;;;5.97;3.00;;;;;;;9.74;36.44;100322.44;1791317;78;21149;-78
2021/04/27 09:08:04;;;;;;;6.70;3.45;;;;;;;9.86;36.45;100321.27;1799453;78;21220;-80
2021/04/27 09:10:43;;;;;;;6.60;2.85;;;;;;;10.02;36.21;100321.46;1798111;78;21034;-78
2021/04/27 09:13:17;;;;;;;4.15;2.60;;;;;;;10.16;36.50;100314.84;1792349;78;21648;-78
2021/04/27 09:15:45;;;;;;;6.67;2.90;;;;;;;10.20;36.37;100314.05;1796509;78;21180;-79
2021/04/27 09:18:31;;;;;;;4.35;2.65;;;;;;;10.51;36.64;100316.36;1796941;78;21602;-80
2021/04/27 09:21:04;;;;;;;8.60;2.70;;;;;;;10.59;35.35;100315.09;1797889;78;21379;-78
2021/04/27 09:23:31;;;;;;;4.62;2.40;;;;;;;10.44;34.45;100320.56;1793659;78;21236;-78
2021/04/27 09:26:18;;;;;;;4.78;2.60;;;;;;;10.61;35.11;100314.44;1793043;78;21050;-78
2021/04/27 09:28:47;;;;;;;5.03;2.25;;;;;;;10.67;34.60;100313.02;1795319;78;21212;-76
2021/04/27 09:31:34;;;;;;;3.72;2.15;;;;;;;10.78;33.32;100306.16;1793420;78;21146;-78
2021/04/27 09:34:26;;;;;;;6.37;2.10;;;;;;;10.56;32.50;100307.48;1791919;78;21918;-79
2021/04/27 09:37:05;;;;;;;3.52;2.08;;;;;;;10.67;32.28;100301.95;1795960;78;21160;-79
2021/04/27 09:39:42;;;;;;;8.90;2.30;;;;;;;10.85;32.62;100302.44;1797891;78;21215;-84
2021/04/27 09:42:23;;;;;;;5.97;2.15;;;;;;;10.70;32.50;100317.48;1794797;78;21205;-87
2021/04/27 09:44:56;;;;;;;7.87;2.37;;;;;;;10.60;31.94;100308.84;1803154;78;21150;-85
2021/04/27 09:47:33;;;;;;;6.00;2.40;;;;;;;10.29;32.29;100309.69;1795727;78;21202;-86
2021/04/27 09:50:09;;;;;;;8.70;3.27;;;;;;;10.24;33.01;100306.19;1782206;78;21116;-88
2021/04/27 09:52:48;;;;;;;9.43;3.10;;;;;;;9.89;34.45;100306.47;1804861;78;21180;-87
2021/04/27 09:55:17;;;;;;;6.12;2.90;;;;;;;9.92;35.46;100308.81;1800170;78;21148;-85
2021/04/27 09:57:56;;;;;;;9.60;3.30;;;;;;;9.83;35.79;100312.33;1793607;78;21229;-86
2021/04/27 10:00:38;;;;;;;8.33;3.05;;;;;;;9.85;35.61;100309.05;1803538;78;21441;-89
2021/04/27 10:03:10;;;;;;;6.85;2.83;;;;;;;9.71;35.09;100301.17;1796457;78;21169;-88
2021/04/27 10:05:37;;;;;;;4.40;2.67;;;;;;;9.98;35.35;100310.03;1794477;78;21654;-87
2021/04/27 10:08:03;;;;;;;4.83;2.60;;;;;;;10.03;34.44;100305.95;1787071;78;21148;-87
2021/04/27 10:10:33;;;;;;;4.60;2.47;;;;;;;10.07;34.24;100299.91;1789622;78;21069;-90
2021/04/27 10:13:03;;;;;;;5.72;2.70;;;;;;;10.13;34.13;100303.73;1775880;78;21180;-85
2021/04/27 10:15:30;;;;;;;4.85;2.20;;;;;;;10.09;33.42;100305.04;1794669;78;21112;-89
2021/04/27 10:17:59;;;;;;;6.08;2.22;;;;;;;10.28;33.23;100299.61;1787952;78;21265;-85
2021/04/27 10:20:29;;;;;;;3.50;1.98;;;;;;;10.37;33.19;100307.16;1785655;78;21634;-85
2021/04/27 10:22:58;;;;;;;3.50;1.75;;;;;;;10.51;32.40;100300.52;1789651;78;21203;-89
2021/04/27 10:25:27;;;;;;;6.55;2.15;;;;;;;10.57;31.70;100299.91;1789424;78;21207;-86
2021/04/27 10:27:59;;;;;;;3.25;2.10;;;;;;;10.73;32.19;100301.84;1791080;78;21227;-85
2021/04/27 10:30:31;;;;;;;3.80;2.02;;;;;;;10.77;32.15;100298.73;1785916;78;21224;-87
2021/04/27 10:33:08;;;;;;;3.62;1.98;;;;;;;11.06;32.45;100297.63;1793671;78;21208;-89
2021/04/27 10:35:42;;;;;;;4.62;1.98;;;;;;;11.17;32.35;100292.57;1792815;78;26742;-86
2021/04/27 10:38:19;;;;;;;7.22;2.30;;;;;;;11.37;32.13;100291.82;1787667;78;21659;-86
2021/04/27 10:40:53;;;;;;;3.98;2.30;;;;;;;11.53;31.87;100294.20;1786008;78;21073;-85
2021/04/27 10:43:34;;;;;;;5.05;2.30;;;;;;;11.05;31.96;100293.31;1787645;78;21212;-85
2021/04/27 10:46:07;;;;;;;4.28;2.40;;;;;;;11.21;32.37;100294.40;1790533;78;21181;-82
2021/04/27 10:48:41;;;;;;;4.08;2.30;;;;;;;11.23;32.13;100289.77;1785703;78;21183;-84
2021/04/27 10:51:27;;;;;;;5.30;2.45;;;;;;;11.52;31.98;100282.81;1786219;78;21393;-85
2021/04/27 10:54:19;;;;;;;;;;;;;;;11.38;32.92;100282.09;1790582;78;21168;-85
2021/04/27 10:57:06;;;;;;;6.58;2.40;;;;;;;11.55;32.23;100286.46;1789289;78;20282;-87
2021/04/27 10:59:53;;;;;;;3.85;2.08;;;;;;;11.36;33.39;100283.58;1757038;78;22019;-85
2021/04/27 11:02:31;;;;;;;5.53;2.12;;;;;;;11.89;33.81;100275.00;1775788;79;21007;-88
2021/04/27 11:04:58;;;;;;;;;;;;;;;12.42;36.51;100272.95;1794987;78;21272;-86
2021/04/27 11:07:30;;;;;;;4.58;2.02;;;;;;;12.67;32.51;100266.33;1775754;78;20217;-87
2021/04/27 11:10:04;;;;;;;6.45;2.20;;;;;;;12.65;31.27;100265.67;1793307;78;21164;-87
2021/04/27 11:12:46;;;;;;;5.15;2.05;;;;;;;12.55;34.61;100268.00;1790846;78;21193;-84
2021/04/27 11:15:23;;;;;;;5.00;2.20;;;;;;;12.55;31.04;100272.45;1784267;78;21150;-83
2021/04/27 11:18:15;;;;;;;4.15;2.10;;;;;;;12.44;29.96;100263.01;1788610;78;21217;-83
2021/04/27 11:21:11;;;;;;;4.70;1.90;;;;;;;12.55;30.32;100262.70;1792028;78;21219;-83
2021/04/27 11:23:45;;;;;;;3.70;2.10;;;;;;;12.41;29.79;100263.34;1792173;78;21224;-81
2021/04/27 11:26:37;;;;;;;2.37;1.70;;;;;;;12.11;29.89;100264.83;1789880;78;21185;-82
2021/04/27 11:29:28;;;;;;;3.40;1.80;;;;;;;12.25;29.89;100267.33;1788282;78;21191;-82
2021/04/27 11:32:10;;;;;;;3.50;1.77;;;;;;;12.26;30.28;100265.84;1790923;78;21364;-82
2021/04/27 11:35:02;;;;;;;3.95;1.95;;;;;;;11.82;30.37;100266.89;1773604;78;21192;-79
2021/04/27 11:37:45;;;;;;;3.37;1.80;;;;;;;11.73;30.42;100270.50;1789777;78;21231;-80
2021/04/27 11:40:31;;;;;;;3.58;1.80;;;;;;;11.89;30.62;100259.62;1789523;78;21158;-80
2021/04/27 11:43:11;;;;;;;3.77;1.82;;;;;;;11.93;30.74;100260.50;1761415;78;21246;-83